createdAt,value
2022-10-11T00:01:40.251Z,102644.56
2022-10-11T00:04:06.822Z,102647.50
2022-10-11T00:06:33.413Z,102652.84
2022-10-11T00:08:59.928Z,102652.84
2022-10-11T00:11:26.386Z,102648.31
2022-10-11T00:13:52.852Z,102650.94
2022-10-11T00:16:19.272Z,102654.41
2022-10-11T00:18:45.922Z,102650.13
2022-10-11T00:21:15.029Z,102648.75
2022-10-11T00:23:42.599Z,102650.78
2022-10-11T00:26:11.556Z,102651.72
2022-10-11T00:28:39.139Z,102656.97
2022-10-11T00:31:13.084Z,102657.88
2022-10-11T00:33:39.752Z,102651.13
2022-10-11T00:36:07.879Z,102659.06
2022-10-11T00:38:34.683Z,102660.97
2022-10-11T00:41:01.445Z,102661.19
2022-10-11T00:43:30.027Z,102666.63
2022-10-11T00:45:56.362Z,102663.53
2022-10-11T00:48:44.566Z,102670.75
2022-10-11T00:51:34.821Z,102670.22
2022-10-11T00:54:02.708Z,102672.13
2022-10-11T00:56:39.899Z,102669.59
2022-10-11T00:59:16.293Z,102670.69
2022-10-11T01:01:43.104Z,102674.22
2022-10-11T01:04:09.836Z,102679.56
2022-10-11T01:06:36.428Z,102687.50
2022-10-11T01:09:04.285Z,102691.28
2022-10-11T01:11:31.380Z,102696.50
2022-10-11T01:14:06.879Z,102690.44
2022-10-11T01:16:52.268Z,102695.66
2022-10-11T01:19:30.514Z,102696.63
2022-10-11T01:22:21.446Z,102695.66
2022-10-11T01:25:15.884Z,102689.72
2022-10-11T01:27:54.348Z,102704.56
2022-10-11T01:30:25.316Z,102701.34
2022-10-11T01:33:13.028Z,102701.34
2022-10-11T01:35:57.794Z,102698.00
2022-10-11T01:38:34.577Z,102706.78
2022-10-11T01:41:33.748Z,102706.78
2022-10-11T01:44:02.343Z,102705.09
2022-10-11T01:46:29.446Z,102703.56
2022-10-11T01:49:01.735Z,102708.66
2022-10-11T01:51:33.023Z,102706.16
2022-10-11T01:54:11.783Z,102707.09
2022-10-11T01:56:57.160Z,102714.09
2022-10-11T01:59:23.560Z,102710.56
2022-10-11T02:02:02.042Z,102699.38
2022-10-11T02:04:47.728Z,102703.84
2022-10-11T02:07:28.464Z,102707.53
2022-10-11T02:10:15.224Z,102714.41
2022-10-11T02:12:55.135Z,102715.38
2022-10-11T02:15:23.511Z,102710.16
2022-10-11T02:17:56.146Z,102718.94
2022-10-11T02:20:26.234Z,102713.72
2022-10-11T02:22:59.737Z,102712.84
2022-10-11T02:25:29.993Z,102710.16
2022-10-11T02:27:59.963Z,102712.84
2022-10-11T02:30:26.637Z,102711.31
2022-10-11T02:32:56.099Z,102714.22
2022-10-11T02:35:27.296Z,102716.00
2022-10-11T02:38:01.703Z,102719.56
2022-10-11T02:40:37.710Z,102714.31
2022-10-11T02:43:17.843Z,102719.56
2022-10-11T02:45:50.055Z,102723.94
2022-10-11T02:48:16.991Z,102720.59
2022-10-11T02:50:43.868Z,102726.97
2022-10-11T02:53:10.393Z,102723.66
2022-10-11T02:55:37.456Z,102725.50
2022-10-11T02:58:03.939Z,102732.72
2022-10-11T03:00:30.882Z,102731.88
2022-10-11T03:02:57.500Z,102734.38
2022-10-11T03:05:24.027Z,102732.63
2022-10-11T03:07:50.540Z,102734.28
2022-10-11T03:10:17.110Z,102731.75
2022-10-11T03:12:43.577Z,102732.50
2022-10-11T03:15:10.501Z,102736.69
2022-10-11T03:17:37.560Z,102727.91
2022-10-11T03:20:05.892Z,102733.75
2022-10-11T03:22:32.604Z,102736.25
2022-10-11T03:25:03.630Z,102739.81
2022-10-11T03:27:31.436Z,102736.47
2022-10-11T03:29:57.980Z,102730.66
2022-10-11T03:32:24.684Z,102730.72
2022-10-11T03:34:51.204Z,102735.25
2022-10-11T03:37:18.295Z,102731.13
2022-10-11T03:39:45.785Z,102741.81
2022-10-11T03:42:12.885Z,102748.06
2022-10-11T03:44:39.458Z,102744.84
2022-10-11T03:47:06.142Z,102746.94
2022-10-11T03:49:32.660Z,102744.41
2022-10-11T03:51:59.306Z,102747.66
2022-10-11T03:54:26.094Z,102758.09
2022-10-11T03:56:52.918Z,102759.03
2022-10-11T03:59:19.441Z,102760.06
2022-10-11T04:01:45.884Z,102763.44
2022-10-11T04:04:12.493Z,102764.97
2022-10-11T04:06:39.064Z,102761.44
2022-10-11T04:09:05.549Z,102762.38
2022-10-11T04:11:32.767Z,102766.25
2022-10-11T04:13:59.330Z,102765.59
2022-10-11T04:16:25.960Z,102765.81
2022-10-11T04:18:52.505Z,102765.28
2022-10-11T04:21:18.952Z,102764.53
2022-10-11T04:23:45.456Z,102771.41
2022-10-11T04:26:11.946Z,102775.09
2022-10-11T04:28:38.530Z,102780.31
2022-10-11T04:31:06.627Z,102784.59
2022-10-11T04:33:33.200Z,102777.91
2022-10-11T04:35:59.811Z,102781.66
2022-10-11T04:38:26.368Z,102785.09
2022-10-11T04:40:52.946Z,102782.47
2022-10-11T04:43:19.509Z,102792.09
2022-10-11T04:45:46.154Z,102787.06
2022-10-11T04:48:13.988Z,102785.47
2022-10-11T04:50:40.533Z,102792.41
2022-10-11T04:53:07.044Z,102793.88
2022-10-11T04:55:33.533Z,102797.13
2022-10-11T04:58:00.073Z,102800.44
2022-10-11T05:00:27.432Z,102802.09
2022-10-11T05:02:54.134Z,102801.06
2022-10-11T05:05:20.772Z,102796.50
2022-10-11T05:07:47.234Z,102796.28
2022-10-11T05:10:13.821Z,102800.50
2022-10-11T05:12:40.458Z,102804.66
2022-10-11T05:15:07.788Z,102804.56
2022-10-11T05:17:34.340Z,102799.88
2022-10-11T05:20:00.952Z,102805.84
2022-10-11T05:22:27.565Z,102805.72
2022-10-11T05:24:54.045Z,102808.44
2022-10-11T05:27:20.600Z,102806.75
2022-10-11T05:29:47.075Z,102810.09
2022-10-11T05:32:13.549Z,102812.59
2022-10-11T05:34:40.011Z,102820.56
2022-10-11T05:37:06.526Z,102821.50
2022-10-11T05:39:32.982Z,102817.41
2022-10-11T05:41:59.503Z,102820.13
2022-10-11T05:44:26.069Z,102824.50
2022-10-11T05:46:52.660Z,102818.66
2022-10-11T05:49:19.115Z,102818.97
2022-10-11T05:51:45.620Z,102824.38
2022-10-11T05:54:12.046Z,102821.75
2022-10-11T05:56:38.545Z,102824.50
2022-10-11T05:59:06.317Z,102829.72
2022-10-11T06:01:32.891Z,102830.53
2022-10-11T06:03:59.445Z,102832.94
2022-10-11T06:06:26.029Z,102836.28
2022-10-11T06:08:52.491Z,102843.28
2022-10-11T06:11:27.452Z,102835.34
2022-10-11T06:13:54.981Z,102833.47
2022-10-11T06:16:21.482Z,102840.91
2022-10-11T06:18:47.991Z,102838.09
2022-10-11T06:21:15.495Z,102850.00
2022-10-11T06:23:41.956Z,102843.75
2022-10-11T06:26:09.779Z,102842.78
2022-10-11T06:28:37.189Z,102855.56
2022-10-11T06:31:06.185Z,102843.16
2022-10-11T06:33:33.791Z,102854.88
2022-10-11T06:36:03.643Z,102863.09
2022-10-11T06:38:30.509Z,102863.53
2022-10-11T06:40:56.994Z,102863.97
2022-10-11T06:43:23.786Z,102871.28
2022-10-11T06:45:50.335Z,102867.13
2022-10-11T06:48:16.840Z,102865.75
2022-10-11T06:50:59.126Z,102867.22
2022-10-11T06:53:27.158Z,102870.34
2022-10-11T06:55:53.652Z,102870.25
2022-10-11T06:58:20.075Z,102873.72
2022-10-11T07:00:46.650Z,102876.00
2022-10-11T07:03:13.189Z,102886.38
2022-10-11T07:05:39.689Z,102889.91
2022-10-11T07:08:06.188Z,102887.19
2022-10-11T07:10:32.661Z,102886.25
2022-10-11T07:12:59.135Z,102884.25
2022-10-11T07:15:25.637Z,102885.84
2022-10-11T07:17:52.140Z,102895.84
2022-10-11T07:20:18.668Z,102892.09
2022-10-11T07:22:45.129Z,102896.94
2022-10-11T07:25:11.619Z,102898.19
2022-10-11T07:27:38.097Z,102898.38
2022-10-11T07:30:05.092Z,102904.63
2022-10-11T07:32:31.527Z,102906.81
2022-10-11T07:34:58.066Z,102902.06
2022-10-11T07:37:24.498Z,102905.22
2022-10-11T07:39:50.989Z,102900.59
2022-10-11T07:42:17.500Z,102907.91
2022-10-11T07:44:43.947Z,102911.75
2022-10-11T07:47:11.417Z,102908.81
2022-10-11T07:49:38.087Z,102906.91
2022-10-11T07:52:04.865Z,102915.41
2022-10-11T07:54:31.742Z,102917.06
2022-10-11T07:56:58.330Z,102917.75
2022-10-11T07:59:24.804Z,102923.88
2022-10-11T08:01:51.315Z,102921.13
2022-10-11T08:04:17.825Z,102915.75
2022-10-11T08:06:44.309Z,102919.13
2022-10-11T08:09:12.153Z,102922.22
2022-10-11T08:11:39.475Z,102921.91
2022-10-11T08:14:09.097Z,102924.81
2022-10-11T08:16:36.529Z,102937.13
2022-10-11T08:19:03.205Z,102935.72
2022-10-11T08:21:30.107Z,102932.41
2022-10-11T08:23:56.780Z,102943.66
2022-10-11T08:26:23.593Z,102938.53
2022-10-11T08:28:50.214Z,102943.72
2022-10-11T08:31:16.906Z,102943.88
2022-10-11T08:33:44.163Z,102948.16
2022-10-11T08:36:11.541Z,102946.75
2022-10-11T08:38:39.115Z,102947.94
2022-10-11T08:41:29.284Z,102945.69
2022-10-11T08:43:59.579Z,102954.63
2022-10-11T08:46:30.950Z,102954.03
2022-10-11T08:48:58.030Z,102967.00
2022-10-11T08:51:35.602Z,102962.84
2022-10-11T08:54:23.891Z,102958.00
2022-10-11T08:56:51.046Z,102957.63
2022-10-11T08:59:41.486Z,102964.41
2022-10-11T09:02:55.626Z,102958.84
2022-10-11T09:05:20.562Z,102957.88
2022-10-11T09:08:08.340Z,102954.03
2022-10-11T09:10:54.724Z,102959.50
2022-10-11T09:13:34.708Z,102961.13
2022-10-11T09:16:19.557Z,102963.97
2022-10-11T09:18:55.644Z,102960.31
2022-10-11T09:21:46.241Z,102963.03
2022-10-11T09:24:21.985Z,102956.88
2022-10-11T09:26:59.776Z,102959.69
2022-10-11T09:29:45.055Z,102958.66
2022-10-11T09:32:15.943Z,102961.19
2022-10-11T09:34:43.417Z,102961.94
2022-10-11T09:37:28.230Z,102964.78
2022-10-11T09:40:12.274Z,102960.94
2022-10-11T09:42:38.773Z,102971.03
2022-10-11T09:45:18.637Z,102960.63
2022-10-11T09:47:45.313Z,102973.66
2022-10-11T09:50:19.748Z,102968.28
2022-10-11T09:52:53.384Z,102963.47
2022-10-11T09:56:02.014Z,102968.72
2022-10-11T09:58:36.077Z,102966.69
2022-10-11T10:01:11.625Z,102962.66
2022-10-11T10:03:43.650Z,102965.88
2022-10-11T10:06:16.071Z,102962.41
2022-10-11T10:08:47.411Z,102967.94
2022-10-11T10:11:14.761Z,102965.56
2022-10-11T10:13:51.773Z,102961.22
2022-10-11T10:16:29.027Z,102963.28
2022-10-11T10:19:00.487Z,102959.00
2022-10-11T10:21:34.005Z,102964.72
2022-10-11T10:24:04.579Z,102960.34
2022-10-11T10:26:32.747Z,102961.53
2022-10-11T10:28:59.255Z,102953.28
2022-10-11T10:31:49.540Z,102964.66
2022-10-11T10:34:32.957Z,102962.56
2022-10-11T10:37:08.251Z,102958.34
2022-10-11T10:39:46.852Z,102955.31
2022-10-11T10:42:16.466Z,102955.16
2022-10-11T10:44:52.609Z,102956.97
2022-10-11T10:47:24.787Z,102956.34
2022-10-11T10:50:02.353Z,102956.25
2022-10-11T10:52:56.679Z,102950.06
2022-10-11T10:55:42.212Z,102945.75
2022-10-11T10:58:56.541Z,102947.72
2022-10-11T11:01:32.419Z,102949.09
2022-10-11T11:04:04.815Z,102943.75
2022-10-11T11:06:56.284Z,102943.25
2022-10-11T11:09:28.695Z,102938.34
2022-10-11T11:12:16.662Z,102936.75
2022-10-11T11:14:57.994Z,102932.56
2022-10-11T11:17:40.459Z,102934.94
2022-10-11T11:20:43.718Z,102935.00
2022-10-11T11:23:38.497Z,102930.06
2022-10-11T11:26:32.476Z,102931.53
2022-10-11T11:29:10.767Z,102924.78
2022-10-11T11:31:47.317Z,102925.22
2022-10-11T11:34:24.370Z,102923.88
2022-10-11T11:37:01.708Z,102922.97
2022-10-11T11:39:34.047Z,102920.94
2022-10-11T11:42:12.302Z,102921.06
2022-10-11T11:44:44.816Z,102921.38
2022-10-11T11:47:19.003Z,102920.03
2022-10-11T11:49:48.142Z,102920.50
2022-10-11T11:52:30.393Z,102923.00
2022-10-11T11:55:23.331Z,102919.22
2022-10-11T11:58:07.301Z,102918.91
2022-10-11T12:00:46.624Z,102912.44
2022-10-11T12:03:20.792Z,102905.31
2022-10-11T12:06:12.179Z,102912.13
2022-10-11T12:08:40.998Z,102907.66
2022-10-11T12:11:20.822Z,102907.84
2022-10-11T12:13:50.830Z,102900.81
2022-10-11T12:16:17.898Z,102905.47
2022-10-11T12:18:50.552Z,102901.16
2022-10-11T12:21:22.920Z,102898.13
2022-10-11T12:23:53.602Z,102896.78
2022-10-11T12:26:29.216Z,102890.88
2022-10-11T12:29:01.661Z,102881.81
2022-10-11T12:31:32.711Z,102882.50
2022-10-11T12:34:02.180Z,102879.34
2022-10-11T12:36:31.409Z,102878.69
2022-10-11T12:39:19.796Z,102873.50
2022-10-11T12:41:49.200Z,102871.84
2022-10-11T12:44:18.701Z,102868.50
2022-10-11T12:46:51.477Z,102869.88
2022-10-11T12:49:43.932Z,102865.03
2022-10-11T12:52:16.350Z,102867.84
2022-10-11T12:54:54.885Z,102871.31
2022-10-11T12:57:33.427Z,102866.13
2022-10-11T13:00:50.595Z,102867.09
2022-10-11T13:03:46.595Z,102865.22
2022-10-11T13:06:20.116Z,102869.19
2022-10-11T13:08:57.428Z,102867.25
2022-10-11T13:11:29.737Z,102867.97
2022-10-11T13:14:00.009Z,102868.91
2022-10-11T13:16:42.120Z,102863.03
2022-10-11T13:19:13.485Z,102855.91
2022-10-11T13:21:40.121Z,102859.06
2022-10-11T13:24:17.547Z,102860.69
2022-10-11T13:26:46.588Z,102859.53
2022-10-11T13:29:26.287Z,102855.66
2022-10-11T13:31:52.923Z,102854.56
2022-10-11T13:34:23.192Z,102860.34
2022-10-11T13:36:56.145Z,102853.91
2022-10-11T13:39:31.284Z,102855.81
2022-10-11T13:41:59.648Z,102852.88
2022-10-11T13:44:26.374Z,102854.06
2022-10-11T13:46:54.127Z,102848.13
2022-10-11T13:49:29.225Z,102846.47
2022-10-11T13:52:01.108Z,102855.13
2022-10-11T13:55:04.761Z,102848.00
2022-10-11T13:57:42.477Z,102844.34
2022-10-11T14:00:15.686Z,102837.88
2022-10-11T14:03:00.817Z,102839.88
2022-10-11T14:05:32.153Z,102836.06
2022-10-11T14:08:01.879Z,102840.88
2022-10-11T14:10:28.810Z,102833.44
2022-10-11T14:13:06.643Z,102844.53
2022-10-11T14:15:38.043Z,102831.91
2022-10-11T14:18:42.312Z,102828.09
2022-10-11T14:21:45.843Z,102834.09
2022-10-11T14:24:13.178Z,102837.25
2022-10-11T14:26:42.660Z,102833.09
2022-10-11T14:29:25.225Z,102829.25
2022-10-11T14:31:55.973Z,102830.19
2022-10-11T14:34:24.263Z,102836.91
2022-10-11T14:36:50.900Z,102832.25
2022-10-11T14:39:19.908Z,102832.69
2022-10-11T14:41:46.562Z,102837.00
2022-10-11T14:44:14.178Z,102834.00
2022-10-11T14:46:41.348Z,102826.16
2022-10-11T14:49:23.113Z,102832.56
2022-10-11T14:51:50.375Z,102830.84
2022-10-11T14:54:19.097Z,102835.53
2022-10-11T14:56:46.464Z,102833.16
2022-10-11T14:59:15.671Z,102823.00
2022-10-11T15:01:43.000Z,102829.13
2022-10-11T15:04:09.584Z,102824.34
2022-10-11T15:06:39.684Z,102832.19
2022-10-11T15:09:07.510Z,102829.38
2022-10-11T15:11:35.117Z,102830.84
2022-10-11T15:14:01.634Z,102827.03
2022-10-11T15:16:28.146Z,102829.19
2022-10-11T15:18:54.581Z,102830.03
2022-10-11T15:21:23.445Z,102817.94
2022-10-11T15:23:51.086Z,102814.25
2022-10-11T15:26:35.743Z,102828.56
2022-10-11T15:29:02.682Z,102812.00
2022-10-11T15:31:29.242Z,102818.34
2022-10-11T15:33:59.457Z,102813.09
2022-10-11T15:36:26.205Z,102813.97
2022-10-11T15:38:52.689Z,102818.31
2022-10-11T15:41:20.081Z,102816.66
2022-10-11T15:43:48.502Z,102810.38
2022-10-11T15:46:19.596Z,102809.91
2022-10-11T15:48:47.185Z,102813.38
2022-10-11T15:51:14.017Z,102814.19
2022-10-11T15:53:40.745Z,102811.88
2022-10-11T15:56:11.951Z,102811.72
2022-10-11T15:58:40.823Z,102804.75
2022-10-11T16:01:18.836Z,102806.91
2022-10-11T16:03:47.325Z,102804.78
2022-10-11T16:06:14.222Z,102796.13
2022-10-11T16:08:40.983Z,102793.19
2022-10-11T16:11:08.880Z,102794.88
2022-10-11T16:13:36.623Z,102807.31
2022-10-11T16:16:05.562Z,102790.41
2022-10-11T16:18:35.588Z,102807.00
2022-10-11T16:21:06.441Z,102788.28
2022-10-11T16:23:33.144Z,102801.75
2022-10-11T16:26:02.050Z,102805.56
2022-10-11T16:28:29.186Z,102801.75
2022-10-11T16:30:55.927Z,102801.78
2022-10-11T16:33:22.697Z,102799.75
2022-10-11T16:35:49.236Z,102803.34
2022-10-11T16:38:15.849Z,102798.88
2022-10-11T16:40:43.043Z,102799.50
2022-10-11T16:43:10.409Z,102807.94
2022-10-11T16:45:37.141Z,102809.22
2022-10-11T16:48:04.261Z,102808.84
2022-10-11T16:50:33.311Z,102813.13
2022-10-11T16:53:02.039Z,102809.75
2022-10-11T16:55:28.541Z,102816.69
2022-10-11T16:57:55.073Z,102822.09
2022-10-11T17:00:21.751Z,102821.91
2022-10-11T17:02:48.373Z,102815.53
2022-10-11T17:05:14.959Z,102809.91
2022-10-11T17:07:41.465Z,102817.63
2022-10-11T17:10:08.528Z,102811.47
2022-10-11T17:12:37.202Z,102810.25
2022-10-11T17:15:05.039Z,102813.38
2022-10-11T17:17:31.558Z,102814.78
2022-10-11T17:19:58.161Z,102809.97
2022-10-11T17:22:24.779Z,102812.41
2022-10-11T17:24:51.291Z,102812.16
2022-10-11T17:27:17.721Z,102819.75
2022-10-11T17:29:44.199Z,102819.22
2022-10-11T17:32:10.782Z,102821.34
2022-10-11T17:34:37.199Z,102828.91
2022-10-11T17:37:03.773Z,102823.50
2022-10-11T17:39:30.819Z,102823.53
2022-10-11T17:41:57.305Z,102819.13
2022-10-11T17:44:23.881Z,102827.22
2022-10-11T17:46:50.488Z,102825.00
2022-10-11T17:49:17.044Z,102821.81
2022-10-11T17:51:43.739Z,102821.31
2022-10-11T17:54:13.319Z,102814.81
2022-10-11T17:56:43.050Z,102816.91
2022-10-11T17:59:15.914Z,102820.66
2022-10-11T18:01:42.474Z,102816.66
2022-10-11T18:04:16.335Z,102830.84
2022-10-11T18:06:45.075Z,102823.06
2022-10-11T18:09:13.068Z,102820.53
2022-10-11T18:11:39.674Z,102827.94
2022-10-11T18:14:06.176Z,102826.03
2022-10-11T18:16:33.300Z,102817.47
2022-10-11T18:19:02.791Z,102825.50
2022-10-11T18:21:34.716Z,102816.09
2022-10-11T18:24:03.520Z,102825.13
2022-10-11T18:26:30.910Z,102825.28
2022-10-11T18:28:58.628Z,102823.75
2022-10-11T18:31:27.933Z,102822.09
2022-10-11T18:33:55.151Z,102824.59
2022-10-11T18:36:24.688Z,102828.94
2022-10-11T18:39:00.983Z,102829.94
2022-10-11T18:41:31.673Z,102827.97
2022-10-11T18:44:00.905Z,102830.47
2022-10-11T18:46:28.160Z,102823.66
2022-10-11T18:48:56.317Z,102827.41
2022-10-11T18:51:31.628Z,102818.84
2022-10-11T18:54:01.021Z,102813.13
2022-10-11T18:56:29.658Z,102818.72
2022-10-11T18:58:57.638Z,102821.09
2022-10-11T19:01:38.008Z,102807.66
2022-10-11T19:04:06.220Z,102809.06
2022-10-11T19:06:41.192Z,102816.41
2022-10-11T19:09:11.788Z,102814.75
2022-10-11T19:11:39.129Z,102811.00
2022-10-11T19:14:12.257Z,102811.16
2022-10-11T19:16:41.325Z,102811.56
2022-10-11T19:19:09.525Z,102821.00
2022-10-11T19:21:36.017Z,102820.59
2022-10-11T19:24:03.552Z,102822.66
2022-10-11T19:26:33.735Z,102807.97
2022-10-11T19:29:05.220Z,102808.38
2022-10-11T19:31:33.079Z,102810.59
2022-10-11T19:33:59.906Z,102805.59
2022-10-11T19:36:27.499Z,102814.00
2022-10-11T19:38:58.090Z,102803.75
2022-10-11T19:41:26.265Z,102803.06
2022-10-11T19:43:54.041Z,102802.63
2022-10-11T19:49:09.158Z,102806.09
2022-10-11T19:51:37.337Z,102800.25
2022-10-11T19:54:07.003Z,102803.03
2022-10-11T19:56:34.435Z,102804.41
2022-10-11T19:59:01.493Z,102791.66
2022-10-11T20:01:30.943Z,102794.69
2022-10-11T20:04:05.969Z,102794.13
2022-10-11T20:06:38.044Z,102793.94
2022-10-11T20:09:28.082Z,102796.00
2022-10-11T20:11:52.283Z,102793.94
2022-10-11T20:14:18.972Z,102806.53
2022-10-11T20:16:45.422Z,102806.78
2022-10-11T20:19:11.913Z,102807.44
2022-10-11T20:21:38.613Z,102809.63
2022-10-11T20:24:06.862Z,102807.13
2022-10-11T20:26:34.336Z,102805.59
2022-10-11T20:29:00.879Z,102803.34
2022-10-11T20:31:32.890Z,102807.94
2022-10-11T20:34:02.348Z,102806.38
2022-10-11T20:36:30.326Z,102805.81
2022-10-11T20:38:58.246Z,102805.94
2022-10-11T20:41:31.641Z,102807.03
2022-10-11T20:43:59.768Z,102811.00
2022-10-11T20:46:32.297Z,102801.72
2022-10-11T20:49:02.230Z,102803.53
2022-10-11T20:51:34.284Z,102803.78
2022-10-11T20:54:02.169Z,102809.56
2022-10-11T20:56:29.793Z,102809.09
2022-10-11T20:58:58.262Z,102807.84
2022-10-11T21:01:28.727Z,102810.56
2022-10-11T21:03:58.576Z,102808.34
2022-10-11T21:06:25.740Z,102807.50
2022-10-11T21:08:55.209Z,102802.91
2022-10-11T21:11:21.824Z,102803.25
2022-10-11T21:13:48.339Z,102812.09
2022-10-11T21:16:16.347Z,102807.81
2022-10-11T21:18:42.855Z,102814.28
2022-10-11T21:21:13.939Z,102803.31
2022-10-11T21:23:41.245Z,102802.91
2022-10-11T21:26:13.296Z,102811.53
2022-10-11T21:28:40.692Z,102805.53
2022-10-11T21:31:09.632Z,102808.31
2022-10-11T21:33:36.949Z,102812.00
2022-10-11T21:36:08.201Z,102810.44
2022-10-11T21:38:34.964Z,102805.00
2022-10-11T21:41:11.447Z,102805.13
2022-10-11T21:43:38.454Z,102813.84
2022-10-11T21:46:41.613Z,102807.84
2022-10-11T21:49:12.522Z,102811.56
2022-10-11T21:51:39.826Z,102808.69
2022-10-11T21:54:06.367Z,102812.72
2022-10-11T21:56:32.880Z,102816.47
2022-10-11T21:58:59.403Z,102812.63
2022-10-11T22:01:26.018Z,102817.38
2022-10-11T22:03:53.879Z,102814.97
2022-10-11T22:06:21.431Z,102813.66
2022-10-11T22:08:49.983Z,102815.31
2022-10-11T22:11:16.672Z,102803.75
2022-10-11T22:13:45.026Z,102805.41
2022-10-11T22:16:13.257Z,102805.53
2022-10-11T22:18:41.355Z,102810.19
2022-10-11T22:21:17.657Z,102813.56
2022-10-11T22:23:47.024Z,102800.88
2022-10-11T22:26:16.342Z,102803.50
2022-10-11T22:28:43.174Z,102796.59
2022-10-11T22:31:10.237Z,102798.50
2022-10-11T22:33:37.043Z,102803.63
2022-10-11T22:36:08.791Z,102801.84
2022-10-11T22:38:37.164Z,102791.44
2022-10-11T22:41:03.724Z,102799.91
2022-10-11T22:43:30.161Z,102800.47
2022-10-11T22:45:56.632Z,102799.22
2022-10-11T22:48:23.232Z,102799.06
2022-10-11T22:50:49.907Z,102790.50
2022-10-11T22:53:16.396Z,102797.31
2022-10-11T22:55:43.036Z,102797.53
2022-10-11T22:58:09.799Z,102801.84
2022-10-11T23:00:36.445Z,102798.88
2022-10-11T23:03:02.968Z,102797.06
2022-10-11T23:05:29.478Z,102807.00
2022-10-11T23:07:56.049Z,102788.59
2022-10-11T23:10:22.607Z,102790.28
2022-10-11T23:12:49.064Z,102786.91
2022-10-11T23:15:15.599Z,102794.78
2022-10-11T23:17:42.434Z,102788.00
2022-10-11T23:20:09.587Z,102775.00
2022-10-11T23:22:36.075Z,102793.63
2022-10-11T23:25:02.715Z,102785.28
2022-10-11T23:27:30.095Z,102791.50
2022-10-11T23:29:56.687Z,102783.41
2022-10-11T23:32:23.889Z,102780.56
2022-10-11T23:34:51.486Z,102786.06
2022-10-11T23:37:17.995Z,102773.31
2022-10-11T23:39:44.445Z,102776.78
2022-10-11T23:42:11.251Z,102771.38
2022-10-11T23:44:37.707Z,102779.50
2022-10-11T23:47:04.168Z,102772.34
2022-10-11T23:49:30.732Z,102774.84
2022-10-11T23:51:57.312Z,102775.56
2022-10-11T23:54:23.777Z,102771.63
2022-10-11T23:56:50.244Z,102771.91
2022-10-11T23:59:16.792Z,102773.66
